Time;durP1;ratioP1;P1;durP2;ratioP2;P2;SDS_P1;SDS_P2;PMS_P1;PMS_P2;Temp;Humidity;BMP_temperature;BMP_pressure;BME280_temperature;BME280_humidity;BME280_pressure;Samples;Min_cycle;Max_cycle;Signal;HPM_P1;HPM_P2
2022/12/06 00:01:38;;;;;;;8.13;3.80;;;;;;;;;;10500425;28;20040;-75
2022/12/06 00:06:53;;;;;;;7.60;3.42;;;;;;;;;;10520956;28;20042;-76
2022/12/06 00:11:57;;;;;;;10.52;4.05;;;;;;;;;;10513645;28;20033;-75
2022/12/06 00:17:01;;;;;;;11.63;3.95;;;;;;;;;;10502994;28;20035;-76
2022/12/06 00:22:05;;;;;;;3.53;1.33;;;;;;;;;;10517099;28;20397;-76
2022/12/06 00:27:09;;;;;;;7.00;2.78;;;;;;;;;;10517708;28;20079;-76
2022/12/06 00:32:11;;;;;;;9.70;4.05;;;;;;;;;;10502788;28;20044;-76
2022/12/06 00:37:23;;;;;;;9.82;4.07;;;;;;;;;;10515976;28;20462;-75
2022/12/06 00:42:25;;;;;;;9.02;4.35;;;;;;;;;;10518455;28;20397;-76
2022/12/06 00:47:28;;;;;;;9.60;4.00;;;;;;;;;;10514546;28;20486;-77
2022/12/06 00:52:33;;;;;;;10.63;4.70;;;;;;;;;;10499678;28;20040;-76
2022/12/06 00:57:36;;;;;;;10.80;4.07;;;;;;;;;;10531629;28;20542;-76
2022/12/06 01:02:39;;;;;;;3.22;1.83;;;;;;;;;;10522083;28;20481;-77
2022/12/06 01:07:44;;;;;;;11.05;4.35;;;;;;;;;;10530066;28;20501;-75
2022/12/06 01:12:47;;;;;;;5.85;3.05;;;;;;;;;;10522704;28;20143;-76
2022/12/06 01:17:50;;;;;;;8.15;3.25;;;;;;;;;;10499354;28;20189;-74
2022/12/06 01:22:55;;;;;;;14.73;5.32;;;;;;;;;;10516253;28;20036;-76
2022/12/06 01:28:01;;;;;;;5.67;2.10;;;;;;;;;;10505854;28;20054;-75
2022/12/06 01:33:04;;;;;;;4.85;1.98;;;;;;;;;;10524294;28;20067;-76
2022/12/06 01:38:09;;;;;;;3.70;2.03;;;;;;;;;;10490351;28;20040;-76
2022/12/06 01:43:33;;;;;;;10.32;4.03;;;;;;;;;;10519127;28;20032;-75
2022/12/06 01:48:37;;;;;;;10.20;4.03;;;;;;;;;;10520145;28;20465;-75
2022/12/06 01:53:43;;;;;;;3.13;1.90;;;;;;;;;;10498371;28;20043;-75
2022/12/06 01:58:48;;;;;;;7.93;3.37;;;;;;;;;;10496833;28;20047;-76
2022/12/06 02:03:51;;;;;;;9.13;3.45;;;;;;;;;;10507583;28;20047;-77
2022/12/06 02:08:56;;;;;;;2.58;1.40;;;;;;;;;;10526913;28;20044;-76
2022/12/06 02:14:01;;;;;;;4.50;2.13;;;;;;;;;;10515425;28;20044;-75
2022/12/06 02:19:08;;;;;;;3.80;1.57;;;;;;;;;;10498855;28;20044;-76
2022/12/06 02:24:21;;;;;;;9.80;4.17;;;;;;;;;;10526654;28;20706;-75
2022/12/06 02:29:44;;;;;;;14.50;5.00;;;;;;;;;;10521278;28;20047;-76
2022/12/06 02:34:52;;;;;;;14.13;5.73;;;;;;;;;;10522362;28;20410;-76
2022/12/06 02:39:58;;;;;;;13.37;5.40;;;;;;;;;;10508497;28;20047;-75
2022/12/06 02:45:03;;;;;;;11.15;4.25;;;;;;;;;;10524354;28;20093;-76
2022/12/06 02:50:11;;;;;;;6.60;3.10;;;;;;;;;;10525596;28;20056;-76
2022/12/06 02:55:18;;;;;;;7.47;2.83;;;;;;;;;;10527174;28;20402;-75
2022/12/06 03:00:33;;;;;;;4.10;2.03;;;;;;;;;;10525595;28;20460;-74
2022/12/06 03:05:40;;;;;;;9.60;3.67;;;;;;;;;;10537126;28;20121;-76
2022/12/06 03:10:47;;;;;;;10.05;4.65;;;;;;;;;;10519103;28;20039;-75
2022/12/06 03:15:55;;;;;;;3.90;1.95;;;;;;;;;;10519146;28;20076;-75
2022/12/06 03:21:01;;;;;;;3.25;1.48;;;;;;;;;;10520208;28;20497;-76
2022/12/06 03:26:05;;;;;;;11.48;4.82;;;;;;;;;;10500454;28;20043;-75
2022/12/06 03:31:10;;;;;;;17.20;6.35;;;;;;;;;;10523708;28;20044;-76
2022/12/06 03:36:18;;;;;;;9.97;4.23;;;;;;;;;;10511282;28;20244;-76
2022/12/06 03:41:23;;;;;;;15.67;5.10;;;;;;;;;;10520953;28;20036;-75
2022/12/06 03:46:28;;;;;;;12.63;5.13;;;;;;;;;;10511389;28;20029;-76
2022/12/06 03:51:34;;;;;;;13.03;5.20;;;;;;;;;;10513435;28;20044;-76
2022/12/06 03:56:38;;;;;;;10.75;4.60;;;;;;;;;;10515686;28;20362;-76
2022/12/06 04:01:41;;;;;;;15.05;5.43;;;;;;;;;;10511554;28;20403;-76
2022/12/06 04:06:45;;;;;;;10.47;4.17;;;;;;;;;;10518459;28;20121;-75
2022/12/06 04:11:48;;;;;;;5.13;1.70;;;;;;;;;;10517654;28;20129;-74
2022/12/06 04:38:40;;;;;;;11.10;3.33;;;;;;;;;;10514786;28;20389;-75
2022/12/06 04:43:44;;;;;;;8.38;1.77;;;;;;;;;;10496490;28;20088;-74
2022/12/06 04:48:47;;;;;;;15.30;5.50;;;;;;;;;;10491670;28;20063;-75
2022/12/06 04:53:52;;;;;;;2.97;1.70;;;;;;;;;;10518341;28;20057;-75
2022/12/06 04:58:54;;;;;;;;;;;;;;;;;;10514032;28;20045;-76
2022/12/06 05:03:57;;;;;;;13.87;5.37;;;;;;;;;;10493957;28;19964;-76
2022/12/06 05:09:02;;;;;;;13.20;5.50;;;;;;;;;;10518049;28;20040;-77
2022/12/06 05:14:11;;;;;;;11.90;3.33;;;;;;;;;;10503736;28;20397;-75
2022/12/06 05:19:14;;;;;;;18.67;6.33;;;;;;;;;;10508925;28;20424;-75
2022/12/06 05:24:19;;;;;;;8.40;3.93;;;;;;;;;;10514677;28;20404;-75
2022/12/06 05:29:22;;;;;;;10.03;3.93;;;;;;;;;;10503732;28;20409;-77
2022/12/06 05:34:25;;;;;;;17.43;6.03;;;;;;;;;;10513876;28;20068;-78
2022/12/06 05:39:30;;;;;;;;;;;;;;;;;;10492724;28;20044;-76
2022/12/06 05:44:35;;;;;;;6.30;2.75;;;;;;;;;;10512788;28;19927;-78
2022/12/06 05:49:38;;;;;;;7.57;3.80;;;;;;;;;;10509691;28;20051;-78
2022/12/06 05:54:41;;;;;;;17.90;5.67;;;;;;;;;;10510620;28;20129;-76
2022/12/06 05:59:46;;;;;;;18.05;6.90;;;;;;;;;;10510508;28;20041;-75
2022/12/06 06:04:51;;;;;;;9.90;3.83;;;;;;;;;;10504781;28;20119;-75
2022/12/06 06:09:55;;;;;;;12.15;5.07;;;;;;;;;;10497613;28;20028;-74
2022/12/06 06:15:00;;;;;;;22.50;7.32;;;;;;;;;;10505264;28;20106;-75
2022/12/06 06:20:06;;;;;;;8.67;3.83;;;;;;;;;;10511551;28;20449;-75
2022/12/06 06:25:10;;;;;;;6.20;3.57;;;;;;;;;;10505183;28;20033;-75
2022/12/06 06:30:16;;;;;;;10.50;4.77;;;;;;;;;;10515160;28;20427;-74
2022/12/06 06:35:19;;;;;;;17.40;6.07;;;;;;;;;;10502004;28;20033;-75
2022/12/06 06:40:22;;;;;;;14.07;4.90;;;;;;;;;;10508411;28;20139;-74
2022/12/06 06:45:27;;;;;;;19.85;7.10;;;;;;;;;;10511859;28;20109;-74
2022/12/06 06:50:30;;;;;;;14.37;5.50;;;;;;;;;;10508361;28;20139;-74
2022/12/06 06:55:35;;;;;;;16.60;5.15;;;;;;;;;;10520823;28;20040;-73
2022/12/06 07:00:39;;;;;;;19.57;5.47;;;;;;;;;;10520119;28;20054;-74
2022/12/06 07:05:43;;;;;;;18.27;7.30;;;;;;;;;;10510969;28;20071;-75
2022/12/06 07:10:48;;;;;;;17.70;6.65;;;;;;;;;;10515970;28;20513;-75
2022/12/06 07:15:53;;;;;;;14.00;5.07;;;;;;;;;;10520333;28;20097;-74
2022/12/06 07:20:59;;;;;;;15.23;6.05;;;;;;;;;;10514513;28;20036;-74
2022/12/06 07:26:03;;;;;;;17.27;4.63;;;;;;;;;;10524407;28;20051;-74
2022/12/06 07:31:11;;;;;;;20.47;7.30;;;;;;;;;;10517822;28;20405;-76
2022/12/06 07:36:16;;;;;;;10.48;3.90;;;;;;;;;;10516694;28;20263;-74
2022/12/06 07:46:46;;;;;;;24.80;8.53;;;;;;;;;;10498318;28;20094;-75
2022/12/06 07:51:51;;;;;;;12.20;5.30;;;;;;;;;;10520409;28;20373;-74
2022/12/06 07:56:56;;;;;;;;;;;;;;;;;;10515186;28;20038;-75
2022/12/06 08:02:00;;;;;;;15.80;6.60;;;;;;;;;;10519820;28;20023;-75
2022/12/06 08:07:06;;;;;;;16.58;6.22;;;;;;;;;;10526857;28;20089;-75
2022/12/06 08:12:09;;;;;;;12.40;5.72;;;;;;;;;;10516063;28;20048;-75
2022/12/06 08:17:21;;;;;;;13.10;6.68;;;;;;;;;;10493422;28;20579;-75
2022/12/06 08:22:24;;;;;;;9.63;4.45;;;;;;;;;;10510959;28;20030;-75
2022/12/06 08:27:26;;;;;;;7.63;3.67;;;;;;;;;;10516008;28;20028;-76
2022/12/06 08:32:32;;;;;;;13.23;5.22;;;;;;;;;;10523396;28;20489;-74
2022/12/06 08:37:36;;;;;;;14.95;6.22;;;;;;;;;;10499593;28;20068;-74
2022/12/06 08:42:40;;;;;;;14.88;6.63;;;;;;;;;;10501894;28;20040;-74
2022/12/06 08:47:44;;;;;;;14.82;6.80;;;;;;;;;;10516190;28;20048;-74
2022/12/06 08:52:48;;;;;;;11.60;5.10;;;;;;;;;;10519239;28;20497;-74
2022/12/06 08:57:51;;;;;;;13.60;6.45;;;;;;;;;;10520143;28;20044;-76
2022/12/06 09:02:58;;;;;;;10.07;4.10;;;;;;;;;;10503815;28;20071;-77
2022/12/06 09:08:02;;;;;;;7.78;3.55;;;;;;;;;;10511046;28;20381;-74
2022/12/06 09:13:05;;;;;;;15.40;5.60;;;;;;;;;;10492776;28;20617;-74
2022/12/06 09:18:10;;;;;;;10.73;4.80;;;;;;;;;;10488386;28;20037;-74
2022/12/06 09:23:12;;;;;;;15.55;5.93;;;;;;;;;;10508909;28;20032;-75
2022/12/06 09:28:24;;;;;;;12.73;5.15;;;;;;;;;;10515239;28;20035;-75
2022/12/06 09:33:28;;;;;;;11.55;4.80;;;;;;;;;;10517668;28;20052;-75
2022/12/06 09:38:34;;;;;;;13.40;6.18;;;;;;;;;;10515801;28;20198;-74
2022/12/06 09:43:43;;;;;;;12.20;4.70;;;;;;;;;;10487641;28;20427;-74
2022/12/06 09:49:01;;;;;;;8.50;3.33;;;;;;;;;;10503400;28;20040;-75
2022/12/06 09:54:11;;;;;;;8.35;3.60;;;;;;;;;;10512500;28;20049;-75
2022/12/06 09:59:16;;;;;;;6.80;2.78;;;;;;;;;;10515099;28;20371;-75
2022/12/06 10:04:27;;;;;;;11.55;4.47;;;;;;;;;;10508725;28;20076;-75
2022/12/06 10:09:43;;;;;;;13.70;4.85;;;;;;;;;;10503524;28;20044;-75
2022/12/06 10:15:14;;;;;;;10.68;5.00;;;;;;;;;;10491573;28;20051;-75
2022/12/06 10:20:19;;;;;;;15.50;5.03;;;;;;;;;;10453318;28;20079;-75
2022/12/06 10:25:25;;;;;;;6.43;2.45;;;;;;;;;;10518108;28;20035;-75
2022/12/06 10:30:33;;;;;;;3.17;1.38;;;;;;;;;;10500601;28;20032;-75
2022/12/06 10:35:42;;;;;;;9.98;3.28;;;;;;;;;;10503394;28;20136;-74
2022/12/06 10:40:50;;;;;;;9.57;3.47;;;;;;;;;;10518364;28;20463;-76
2022/12/06 10:51:26;;;;;;;3.00;1.27;;;;;;;;;;10519709;28;20433;-77
2022/12/06 10:56:29;;;;;;;7.50;3.08;;;;;;;;;;10515690;28;20079;-75
2022/12/06 11:01:34;;;;;;;8.18;3.40;;;;;;;;;;10498817;28;20052;-75
2022/12/06 11:06:42;;;;;;;10.82;3.42;;;;;;;;;;10519017;28;20035;-75
2022/12/06 11:11:53;;;;;;;6.57;3.13;;;;;;;;;;10516365;28;20067;-75
2022/12/06 11:16:59;;;;;;;8.50;3.25;;;;;;;;;;10515372;28;20383;-74
2022/12/06 11:22:08;;;;;;;7.25;3.45;;;;;;;;;;10496338;28;20113;-75
2022/12/06 11:27:14;;;;;;;5.72;2.22;;;;;;;;;;10520706;28;20039;-74
2022/12/06 11:32:18;;;;;;;7.85;3.20;;;;;;;;;;10516901;28;20493;-74
2022/12/06 11:37:26;;;;;;;2.65;1.17;;;;;;;;;;10521466;28;20516;-74
2022/12/06 11:42:29;;;;;;;2.42;1.75;;;;;;;;;;10517649;28;20066;-73
2022/12/06 11:47:33;;;;;;;6.90;2.95;;;;;;;;;;10498996;28;20043;-75
2022/12/06 11:52:38;;;;;;;4.00;2.30;;;;;;;;;;10497836;28;20694;-74
2022/12/06 11:57:45;;;;;;;14.30;6.88;;;;;;;;;;10515429;28;20067;-74
2022/12/06 12:02:49;;;;;;;11.07;4.03;;;;;;;;;;10519235;28;20048;-74
2022/12/06 12:07:56;;;;;;;11.27;2.72;;;;;;;;;;10500762;28;20043;-74
2022/12/06 12:18:33;;;;;;;7.93;3.00;;;;;;;;;;10492286;28;20078;-74
2022/12/06 12:23:36;;;;;;;;;;;;;;;;;;10495569;28;20560;-74
2022/12/06 12:28:42;;;;;;;8.65;4.03;;;;;;;;;;10511842;28;20003;-74
2022/12/06 12:33:46;;;;;;;6.53;3.10;;;;;;;;;;10514285;28;20043;-75
2022/12/06 12:38:52;;;;;;;6.25;2.97;;;;;;;;;;10516283;28;20076;-75
2022/12/06 12:44:01;;;;;;;7.30;2.97;;;;;;;;;;10506819;28;20044;-73
2022/12/06 12:49:29;;;;;;;7.53;3.33;;;;;;;;;;10491896;28;20059;-74
2022/12/06 12:54:34;;;;;;;6.57;2.95;;;;;;;;;;10494065;28;20047;-74
2022/12/06 12:59:39;;;;;;;1.52;1.13;;;;;;;;;;10503056;28;20508;-73
2022/12/06 13:04:48;;;;;;;7.38;3.28;;;;;;;;;;10516875;28;20040;-74
2022/12/06 13:10:17;;;;;;;6.28;2.75;;;;;;;;;;10497124;28;20044;-76
2022/12/06 13:15:25;;;;;;;7.57;3.22;;;;;;;;;;10492003;28;20036;-74
2022/12/06 13:20:30;;;;;;;9.25;3.45;;;;;;;;;;10506215;28;20130;-73
2022/12/06 13:25:33;;;;;;;12.25;3.97;;;;;;;;;;10496811;28;20400;-73
2022/12/06 13:30:41;;;;;;;8.60;3.38;;;;;;;;;;10496655;28;20051;-74
2022/12/06 13:35:49;;;;;;;7.25;3.30;;;;;;;;;;10508460;28;20131;-73
2022/12/06 13:40:52;;;;;;;6.80;3.13;;;;;;;;;;10499817;28;20407;-76
2022/12/06 13:46:16;;;;;;;4.22;1.80;;;;;;;;;;10509554;28;20032;-74
2022/12/06 13:51:39;;;;;;;7.45;3.00;;;;;;;;;;10520113;28;20068;-74
2022/12/06 13:56:43;;;;;;;10.23;3.28;;;;;;;;;;10530287;28;20044;-74
2022/12/06 14:01:48;;;;;;;4.28;1.25;;;;;;;;;;10511548;28;20215;-75
2022/12/06 14:06:53;;;;;;;6.30;2.75;;;;;;;;;;10525971;28;20048;-73
2022/12/06 14:12:02;;;;;;;;;;;;;;;;;;10525917;28;20040;-73
2022/12/06 14:17:12;;;;;;;1.50;1.17;;;;;;;;;;10522613;28;20128;-75
2022/12/06 14:22:36;;;;;;;1.98;1.27;;;;;;;;;;10510739;28;20048;-74
2022/12/06 14:27:43;;;;;;;5.38;2.60;;;;;;;;;;10508449;28;20460;-73
2022/12/06 14:32:58;;;;;;;5.07;2.47;;;;;;;;;;10520934;28;20504;-74
2022/12/06 14:38:05;;;;;;;5.60;2.40;;;;;;;;;;10522288;28;20045;-75
2022/12/06 14:43:15;;;;;;;4.60;1.80;;;;;;;;;;10527352;28;20126;-74
2022/12/06 14:48:19;;;;;;;6.65;2.60;;;;;;;;;;10511420;28;20091;-75
2022/12/06 14:53:29;;;;;;;10.80;2.53;;;;;;;;;;10503283;28;20555;-74
2022/12/06 14:58:34;;;;;;;10.50;3.28;;;;;;;;;;10512533;28;20041;-75
2022/12/06 15:03:39;;;;;;;7.85;2.60;;;;;;;;;;10516300;28;20099;-74
2022/12/06 15:08:43;;;;;;;7.72;3.00;;;;;;;;;;10514663;28;20033;-74
2022/12/06 15:14:06;;;;;;;9.23;2.83;;;;;;;;;;10518539;28;20497;-75
2022/12/06 15:19:13;;;;;;;9.27;2.30;;;;;;;;;;10518237;28;20068;-75
2022/12/06 15:24:20;;;;;;;6.53;2.47;;;;;;;;;;10517297;28;20048;-75
2022/12/06 15:29:23;;;;;;;6.50;2.60;;;;;;;;;;10512121;28;20187;-75
2022/12/06 15:34:31;;;;;;;5.40;2.85;;;;;;;;;;10495185;28;20036;-75
2022/12/06 15:39:34;;;;;;;4.55;2.50;;;;;;;;;;10520285;28;20047;-74
2022/12/06 15:44:37;;;;;;;5.22;2.45;;;;;;;;;;10495669;28;20815;-74
2022/12/06 15:49:41;;;;;;;5.82;2.38;;;;;;;;;;10496979;28;20477;-74
2022/12/06 15:54:45;;;;;;;6.45;3.22;;;;;;;;;;10519333;28;20071;-74
2022/12/06 15:59:48;;;;;;;7.25;3.08;;;;;;;;;;10498381;28;20350;-73
2022/12/06 16:04:53;;;;;;;4.70;2.60;;;;;;;;;;10509691;28;20044;-74
2022/12/06 16:10:08;;;;;;;3.67;1.98;;;;;;;;;;10510086;28;20082;-75
2022/12/06 16:15:11;;;;;;;6.53;2.40;;;;;;;;;;10496180;28;20040;-74
2022/12/06 16:20:33;;;;;;;8.13;3.75;;;;;;;;;;10515559;28;20032;-73
2022/12/06 16:25:37;;;;;;;8.48;3.38;;;;;;;;;;10525060;28;20067;-74
2022/12/06 16:36:00;;;;;;;7.38;3.20;;;;;;;;;;10517191;28;20040;-75
2022/12/06 16:41:07;;;;;;;8.60;4.38;;;;;;;;;;10492732;28;20054;-74
2022/12/06 16:46:24;;;;;;;7.53;3.58;;;;;;;;;;10517533;28;20043;-74
2022/12/06 16:51:30;;;;;;;7.25;2.58;;;;;;;;;;10510041;28;20054;-75
2022/12/06 16:56:35;;;;;;;3.88;2.38;;;;;;;;;;10515582;28;20043;-75
2022/12/06 17:01:46;;;;;;;5.78;2.80;;;;;;;;;;10506116;28;20042;-74
2022/12/06 17:06:51;;;;;;;9.73;2.35;;;;;;;;;;10502262;28;20048;-75
2022/12/06 17:12:05;;;;;;;10.45;4.50;;;;;;;;;;10516646;28;20044;-74
2022/12/06 17:17:11;;;;;;;9.50;3.65;;;;;;;;;;10504391;28;20492;-75
2022/12/06 17:22:17;;;;;;;9.93;4.13;;;;;;;;;;10518669;28;20120;-75
2022/12/06 17:27:20;;;;;;;9.00;4.07;;;;;;;;;;10524073;28;20053;-74
2022/12/06 17:32:23;;;;;;;10.52;2.88;;;;;;;;;;10515635;28;20043;-74
2022/12/06 17:37:28;;;;;;;8.25;4.00;;;;;;;;;;10515585;28;20386;-75
2022/12/06 17:47:51;;;;;;;8.27;4.07;;;;;;;;;;10504514;28;20032;-75
2022/12/06 17:52:58;;;;;;;6.10;3.58;;;;;;;;;;10519103;28;20507;-74
2022/12/06 17:58:03;;;;;;;8.10;3.13;;;;;;;;;;10512285;28;20054;-75
2022/12/06 18:03:09;;;;;;;4.72;2.15;;;;;;;;;;10527179;28;20123;-77
2022/12/06 18:08:14;;;;;;;4.65;2.67;;;;;;;;;;10497760;28;20032;-76
2022/12/06 18:13:20;;;;;;;10.88;4.57;;;;;;;;;;10511739;28;20114;-74
2022/12/06 18:18:25;;;;;;;10.80;4.80;;;;;;;;;;10512788;28;20064;-76
2022/12/06 18:23:29;;;;;;;11.70;5.03;;;;;;;;;;10499746;28;20217;-75
2022/12/06 18:28:33;;;;;;;11.05;4.85;;;;;;;;;;10515158;28;20044;-76
2022/12/06 18:33:37;;;;;;;11.88;4.97;;;;;;;;;;10495496;28;20561;-75
2022/12/06 18:38:43;;;;;;;10.15;4.72;;;;;;;;;;10491896;28;20465;-75
2022/12/06 18:43:48;;;;;;;9.95;3.85;;;;;;;;;;10523452;28;20046;-76
2022/12/06 18:48:52;;;;;;;16.07;5.40;;;;;;;;;;10506684;28;20036;-74
2022/12/06 18:53:58;;;;;;;5.55;2.55;;;;;;;;;;10518809;28;20473;-76
2022/12/06 18:59:01;;;;;;;7.90;3.95;;;;;;;;;;10508075;28;20500;-76
2022/12/06 19:04:05;;;;;;;12.27;5.30;;;;;;;;;;10526790;28;20068;-77
2022/12/06 19:09:11;;;;;;;7.67;3.37;;;;;;;;;;10507147;28;20045;-77
2022/12/06 19:14:14;;;;;;;8.20;3.67;;;;;;;;;;10522949;28;20649;-77
2022/12/06 19:19:18;;;;;;;8.70;4.10;;;;;;;;;;10499427;28;20480;-75
2022/12/06 19:24:21;;;;;;;;;;;;;;;;;;10533306;28;20048;-75
2022/12/06 19:29:26;;;;;;;10.45;4.80;;;;;;;;;;10527764;28;19928;-75
2022/12/06 19:34:29;;;;;;;16.17;5.75;;;;;;;;;;10527971;28;20397;-75
2022/12/06 19:39:33;;;;;;;13.73;5.20;;;;;;;;;;10490317;28;20040;-76
2022/12/06 19:44:38;;;;;;;14.73;5.80;;;;;;;;;;10518018;28;20064;-76
2022/12/06 19:49:41;;;;;;;13.45;6.30;;;;;;;;;;10515491;28;20695;-75
2022/12/06 19:54:44;;;;;;;12.05;4.78;;;;;;;;;;10495078;28;20055;-77
2022/12/06 19:59:50;;;;;;;14.32;6.50;;;;;;;;;;10497100;28;20658;-78
2022/12/06 20:04:54;;;;;;;14.48;6.10;;;;;;;;;;10517003;28;20139;-76
2022/12/06 20:09:56;;;;;;;10.60;4.45;;;;;;;;;;10511044;28;20116;-75
2022/12/06 20:15:08;;;;;;;13.90;5.38;;;;;;;;;;10514727;28;20037;-75
2022/12/06 20:20:12;;;;;;;14.95;6.15;;;;;;;;;;10514272;28;20041;-76
2022/12/06 20:25:16;;;;;;;13.38;5.53;;;;;;;;;;10514125;28;20132;-76
2022/12/06 20:30:21;;;;;;;16.27;6.85;;;;;;;;;;10495417;28;20051;-76
2022/12/06 20:35:28;;;;;;;14.70;6.85;;;;;;;;;;10514103;28;20114;-76
2022/12/06 20:40:32;;;;;;;12.98;5.45;;;;;;;;;;10476213;28;20048;-76
2022/12/06 20:45:35;;;;;;;;;;;;;;;;;;10493815;28;20040;-77
2022/12/06 20:50:40;;;;;;;7.38;3.90;;;;;;;;;;10514758;28;19920;-74
2022/12/06 20:55:43;;;;;;;18.67;7.13;;;;;;;;;;10511753;28;20042;-76
2022/12/06 21:00:47;;;;;;;16.52;7.05;;;;;;;;;;10492608;28;20436;-75
2022/12/06 21:05:50;;;;;;;;;;;;;;;;;;10495952;28;20036;-76
2022/12/06 21:10:59;;;;;;;11.32;4.80;;;;;;;;;;10516095;28;20377;-77
2022/12/06 21:16:22;;;;;;;20.10;7.47;;;;;;;;;;10511710;28;20036;-78
2022/12/06 21:21:27;;;;;;;17.50;5.80;;;;;;;;;;10490947;28;20401;-78
2022/12/06 21:26:32;;;;;;;18.98;8.45;;;;;;;;;;10513471;28;20051;-77
2022/12/06 21:31:37;;;;;;;18.02;7.57;;;;;;;;;;10487096;28;20516;-77
2022/12/06 21:36:47;;;;;;;16.70;6.57;;;;;;;;;;10495558;28;20048;-77
2022/12/06 21:41:58;;;;;;;21.10;7.05;;;;;;;;;;10496091;28;20044;-78
2022/12/06 21:47:02;;;;;;;20.05;8.23;;;;;;;;;;10497162;28;20048;-77
2022/12/06 21:52:05;;;;;;;19.77;8.27;;;;;;;;;;10512211;28;20056;-76
2022/12/06 21:57:14;;;;;;;21.00;7.93;;;;;;;;;;10509481;28;20044;-78
2022/12/06 22:02:17;;;;;;;19.52;8.32;;;;;;;;;;10513710;28;20135;-76
2022/12/06 22:07:20;;;;;;;17.90;6.65;;;;;;;;;;10496998;28;20053;-76
2022/12/06 22:12:25;;;;;;;17.60;7.75;;;;;;;;;;10514247;28;20214;-77
2022/12/06 22:17:29;;;;;;;14.48;6.72;;;;;;;;;;10509117;28;20045;-77
2022/12/06 22:22:32;;;;;;;12.95;5.85;;;;;;;;;;10516017;28;20041;-78
2022/12/06 22:27:36;;;;;;;16.98;5.70;;;;;;;;;;10499647;28;20115;-76
2022/12/06 22:32:39;;;;;;;;;;;;;;;;;;10498056;28;20092;-76
2022/12/06 22:37:43;;;;;;;15.30;6.40;;;;;;;;;;10515920;28;19973;-77
2022/12/06 22:42:47;;;;;;;12.65;5.93;;;;;;;;;;10494033;28;20048;-78
2022/12/06 22:47:50;;;;;;;16.85;6.85;;;;;;;;;;10517013;28;20044;-76
2022/12/06 22:52:54;;;;;;;15.73;5.80;;;;;;;;;;10500475;28;20039;-76
2022/12/06 22:57:59;;;;;;;16.43;7.20;;;;;;;;;;10520169;28;20044;-76
2022/12/06 23:03:05;;;;;;;17.85;5.22;;;;;;;;;;10516401;28;20093;-76
2022/12/06 23:08:09;;;;;;;15.02;6.50;;;;;;;;;;10497294;28;20051;-78
2022/12/06 23:13:14;;;;;;;16.45;6.18;;;;;;;;;;10498422;28;20127;-77
2022/12/06 23:18:18;;;;;;;14.20;5.50;;;;;;;;;;10515290;28;20071;-76
2022/12/06 23:23:21;;;;;;;14.70;6.32;;;;;;;;;;10495625;28;20070;-76
2022/12/06 23:28:28;;;;;;;15.43;6.70;;;;;;;;;;10513891;28;20035;-76
2022/12/06 23:33:34;;;;;;;14.05;4.90;;;;;;;;;;10500098;28;20413;-76
2022/12/06 23:38:46;;;;;;;11.57;5.00;;;;;;;;;;10520930;28;20071;-77
2022/12/06 23:43:52;;;;;;;11.23;4.33;;;;;;;;;;10520656;28;20133;-76
2022/12/06 23:48:55;;;;;;;14.68;6.47;;;;;;;;;;10522535;28;20054;-77
2022/12/06 23:54:00;;;;;;;13.30;5.90;;;;;;;;;;10523690;28;20169;-76
2022/12/06 23:59:02;;;;;;;;;;;;;;;;;;10491513;28;20465;-75
